aviador You're here:

CYKF Decoded Metar

WATERLOO in ON, CANADA
Report Time2018-07-22 00:49:00
UTC Time2018-07-22 01:01:48
Flight Rules vfr VFR
Wind080° at 09 Gusting to 16 kt
W.Decomp.*RWY 08: 8.9 kt HW 1.6 kt RCW
RWY 14: 5.8 kt HW 6.9 kt LCW
W.Rank080° ranks 16
Current wind is above 080° avg. (8.0)
Visibility9999 m
Phenomena:Light Rain
Clouds:Scattered 045 Hf
Overcast 060 Hf
Expected CloudBase > 2,000 ft AGL from Temp-Dew spread
Ceiling6,000 ft
Temp22°C (ISA +9)
Dew Point17°C (73% RH)
AAT21.1°C
QNH1012 hPa
Density Alt2,388 ft
Elevation1,040 ft
Report Wrong Elevation
Raw Report
SPECI CYKF 220049Z AUTO 08009G16KT 9SM -RA SCT045 OVC060 22/17 A2989
RMK SLP117 DENSITY ALT 2000FT=

Extra information for CYKF:More info

Metar Taf Metar & Taf Last 4 Metars F.Rules Stats Wind Profile Meteogram Temp Stats Airport Information Weather charts Add Link Nearby VenuesMetar ALERT Operation Metar Decoded Social comments